Time;durP1;ratioP1;P1;durP2;ratioP2;P2;SDS_P1;SDS_P2;PMS_P1;PMS_P2;Temp;Humidity;BMP_temperature;BMP_pressure;BME280_temperature;BME280_humidity;BME280_pressure;Samples;Min_cycle;Max_cycle;Signal;HPM_P1;HPM_P2
2023/06/24 00:00:56;;;;;;;0.63;0.63;;;;;;;;;;7406404;19;20166;-91
2023/06/24 00:03:23;;;;;;;0.82;0.82;;;;;;;;;;7406387;19;20179;-93
2023/06/24 00:05:50;;;;;;;1.33;1.30;;;;;;;;;;7397161;19;20137;-93
2023/06/24 00:08:22;;;;;;;0.50;0.50;;;;;;;;;;7394643;19;20200;-94
2023/06/24 00:10:50;;;;;;;0.93;0.93;;;;;;;;;;7395457;19;20502;-93
2023/06/24 00:13:17;;;;;;;1.10;0.80;;;;;;;;;;7400901;19;20167;-94
2023/06/24 00:15:49;;;;;;;0.88;0.88;;;;;;;;;;7403687;19;20196;-92
2023/06/24 00:18:16;;;;;;;0.75;0.75;;;;;;;;;;7404150;19;20500;-93
2023/06/24 00:20:43;;;;;;;0.70;0.70;;;;;;;;;;7401144;19;20141;-93
2023/06/24 00:23:14;;;;;;;0.40;0.40;;;;;;;;;;7414386;19;20129;-93
2023/06/24 00:25:42;;;;;;;0.50;0.50;;;;;;;;;;7416727;19;20133;-92
2023/06/24 00:28:08;;;;;;;6.20;0.85;;;;;;;;;;7418450;19;20153;-92
2023/06/24 00:30:35;;;;;;;0.88;0.88;;;;;;;;;;7406673;19;20466;-94
2023/06/24 00:33:02;;;;;;;1.35;1.35;;;;;;;;;;7405307;19;20496;-93
2023/06/24 00:35:29;;;;;;;1.10;1.02;;;;;;;;;;7405639;19;20137;-94
2023/06/24 00:37:58;;;;;;;0.57;0.47;;;;;;;;;;7402419;19;20144;-93
2023/06/24 00:40:25;;;;;;;1.05;1.05;;;;;;;;;;7415075;19;20137;-94
2023/06/24 00:42:52;;;;;;;0.90;0.68;;;;;;;;;;7437652;19;20146;-93
2023/06/24 00:45:19;;;;;;;0.85;0.85;;;;;;;;;;7436714;19;20148;-93
2023/06/24 00:47:46;;;;;;;0.75;0.73;;;;;;;;;;7439747;19;20129;-92
2023/06/24 00:50:14;;;;;;;1.92;0.80;;;;;;;;;;7431054;19;20133;-93
2023/06/24 00:52:42;;;;;;;0.65;0.65;;;;;;;;;;7433008;19;20141;-93
2023/06/24 00:55:14;;;;;;;0.80;0.80;;;;;;;;;;7434923;19;20157;-93
2023/06/24 00:57:43;;;;;;;1.15;1.05;;;;;;;;;;7434948;19;20141;-93
2023/06/24 01:00:15;;;;;;;1.65;1.50;;;;;;;;;;7434243;19;20137;-93
2023/06/24 01:02:42;;;;;;;0.55;0.55;;;;;;;;;;7435187;19;20130;-90
2023/06/24 01:05:14;;;;;;;0.60;0.60;;;;;;;;;;7429957;19;20200;-93
2023/06/24 01:07:42;;;;;;;1.40;0.98;;;;;;;;;;7409381;19;20298;-91
2023/06/24 01:10:09;;;;;;;1.23;1.13;;;;;;;;;;7395725;19;20196;-92
2023/06/24 01:12:38;;;;;;;0.80;0.80;;;;;;;;;;7400466;19;20125;-91
2023/06/24 01:15:09;;;;;;;2.75;0.95;;;;;;;;;;7399077;19;20203;-91
2023/06/24 01:17:49;;;;;;;1.50;0.73;;;;;;;;;;7398738;19;20145;-91
2023/06/24 01:20:46;;;;;;;3.58;1.02;;;;;;;;;;7398353;19;20160;-91
2023/06/24 01:23:44;;;;;;;0.70;0.70;;;;;;;;;;7399263;19;20141;-91
2023/06/24 01:26:55;;;;;;;0.88;0.88;;;;;;;;;;7395360;19;20153;-91
2023/06/24 01:29:46;;;;;;;2.08;1.27;;;;;;;;;;7398123;19;20184;-91
2023/06/24 01:32:29;;;;;;;0.57;0.57;;;;;;;;;;7394309;19;20141;-92
2023/06/24 01:35:17;;;;;;;0.60;0.60;;;;;;;;;;7395562;19;20169;-92
2023/06/24 01:37:49;;;;;;;0.45;0.45;;;;;;;;;;7398433;19;20145;-91
2023/06/24 01:40:23;;;;;;;0.50;0.50;;;;;;;;;;7398701;19;20608;-92
2023/06/24 01:42:50;;;;;;;1.17;1.17;;;;;;;;;;7396689;19;20164;-92
2023/06/24 01:45:19;;;;;;;1.10;1.00;;;;;;;;;;7393360;19;20167;-91
2023/06/24 01:47:48;;;;;;;0.73;0.73;;;;;;;;;;7400451;19;20144;-92
2023/06/24 01:50:17;;;;;;;1.40;1.30;;;;;;;;;;7397251;19;20129;-91
2023/06/24 01:52:45;;;;;;;0.88;0.75;;;;;;;;;;7401157;19;20123;-92
2023/06/24 01:55:18;;;;;;;0.32;0.32;;;;;;;;;;7397039;19;20165;-92
2023/06/24 01:57:50;;;;;;;0.70;0.70;;;;;;;;;;7397212;19;20606;-92
2023/06/24 02:00:17;;;;;;;0.98;0.98;;;;;;;;;;7398860;19;20224;-92
2023/06/24 02:02:45;;;;;;;0.82;0.82;;;;;;;;;;7398576;19;20240;-92
2023/06/24 02:05:12;;;;;;;0.52;0.52;;;;;;;;;;7393681;19;20165;-92
2023/06/24 02:07:39;;;;;;;0.55;0.50;;;;;;;;;;7395865;19;20137;-92
2023/06/24 02:10:07;;;;;;;0.47;0.47;;;;;;;;;;7400309;19;20622;-91
2023/06/24 02:12:33;;;;;;;0.73;0.73;;;;;;;;;;7400468;19;20129;-92
2023/06/24 02:15:01;;;;;;;0.60;0.60;;;;;;;;;;7394792;19;20239;-92
2023/06/24 02:17:29;;;;;;;1.38;1.23;;;;;;;;;;7396088;19;20208;-93
2023/06/24 02:19:57;;;;;;;0.82;0.82;;;;;;;;;;7400238;19;20141;-92
2023/06/24 02:22:24;;;;;;;0.90;0.90;;;;;;;;;;7396153;19;20125;-92
2023/06/24 02:24:51;;;;;;;0.65;0.65;;;;;;;;;;7395222;19;20176;-92
2023/06/24 02:27:18;;;;;;;1.10;1.10;;;;;;;;;;7393180;19;20184;-93
2023/06/24 02:30:09;;;;;;;0.50;0.50;;;;;;;;;;7393339;19;20485;-92
2023/06/24 02:32:38;;;;;;;0.77;0.77;;;;;;;;;;7395523;19;20137;-92
2023/06/24 02:35:05;;;;;;;0.93;0.73;;;;;;;;;;7395083;19;20221;-92
2023/06/24 02:37:32;;;;;;;0.77;0.77;;;;;;;;;;7393325;19;20141;-92
2023/06/24 02:39:59;;;;;;;0.65;0.50;;;;;;;;;;7395367;19;20144;-91
2023/06/24 02:42:26;;;;;;;0.77;0.77;;;;;;;;;;7399004;19;20486;-92
2023/06/24 02:44:53;;;;;;;0.80;0.80;;;;;;;;;;7395379;19;20645;-92
2023/06/24 02:47:20;;;;;;;1.13;1.13;;;;;;;;;;7394531;19;20472;-92
2023/06/24 02:49:48;;;;;;;0.60;0.60;;;;;;;;;;7394311;19;20165;-92
2023/06/24 02:52:18;;;;;;;0.57;0.57;;;;;;;;;;7397543;19;20141;-93
2023/06/24 02:54:52;;;;;;;1.00;1.00;;;;;;;;;;7394837;19;20519;-92
2023/06/24 02:57:28;;;;;;;0.63;0.63;;;;;;;;;;7396305;19;20140;-92
2023/06/24 02:59:55;;;;;;;0.45;0.45;;;;;;;;;;7395621;19;20889;-92
2023/06/24 03:02:22;;;;;;;0.52;0.52;;;;;;;;;;7394412;19;20139;-92
2023/06/24 03:04:50;;;;;;;0.85;0.85;;;;;;;;;;7396681;19;20178;-92
2023/06/24 03:07:20;;;;;;;1.85;0.65;;;;;;;;;;7394345;19;20216;-92
2023/06/24 03:09:47;;;;;;;1.13;1.10;;;;;;;;;;7396442;19;20137;-91
2023/06/24 03:12:14;;;;;;;1.17;1.15;;;;;;;;;;7393685;19;20229;-91
2023/06/24 03:14:44;;;;;;;0.73;0.73;;;;;;;;;;7396103;19;20145;-93
2023/06/24 03:21:17;;;;;;;0.47;0.47;;;;;;;;;;7399180;19;20591;-93
2023/06/24 03:23:43;;;;;;;1.48;0.90;;;;;;;;;;7394519;19;20192;-94
2023/06/24 03:26:11;;;;;;;1.00;0.88;;;;;;;;;;7395100;19;20140;-94
2023/06/24 03:28:40;;;;;;;0.60;0.60;;;;;;;;;;7394136;19;20606;-93
2023/06/24 03:31:07;;;;;;;0.40;0.40;;;;;;;;;;7397314;19;20141;-94
2023/06/24 03:33:47;;;;;;;1.35;1.25;;;;;;;;;;7395248;19;20184;-94
2023/06/24 03:36:14;;;;;;;1.17;1.13;;;;;;;;;;7395894;19;20145;-94
2023/06/24 03:38:41;;;;;;;1.00;0.98;;;;;;;;;;7391567;19;20160;-94
2023/06/24 03:41:11;;;;;;;0.90;0.90;;;;;;;;;;7395679;19;20137;-93
2023/06/24 03:43:39;;;;;;;0.50;0.50;;;;;;;;;;7394801;19;20166;-93
2023/06/24 03:46:06;;;;;;;0.70;0.70;;;;;;;;;;7391625;19;20144;-94
2023/06/24 03:48:33;;;;;;;0.68;0.68;;;;;;;;;;7389824;19;20209;-92
2023/06/24 03:51:00;;;;;;;0.38;0.38;;;;;;;;;;7394562;19;20149;-94
2023/06/24 03:53:27;;;;;;;0.90;0.82;;;;;;;;;;7390914;19;20161;-92
2023/06/24 03:55:54;;;;;;;0.80;0.77;;;;;;;;;;7391423;19;20616;-93
2023/06/24 03:58:21;;;;;;;1.50;1.40;;;;;;;;;;7391120;19;20141;-93
2023/06/24 04:00:49;;;;;;;1.10;1.05;;;;;;;;;;7391911;19;20156;-93
2023/06/24 04:03:19;;;;;;;1.05;1.00;;;;;;;;;;7389806;19;20657;-91
2023/06/24 04:05:46;;;;;;;0.50;0.50;;;;;;;;;;7390788;19;20164;-93
2023/06/24 04:08:12;;;;;;;1.67;0.93;;;;;;;;;;7390655;19;20221;-92
2023/06/24 04:10:42;;;;;;;0.70;0.70;;;;;;;;;;7392443;19;20545;-93
2023/06/24 04:13:08;;;;;;;0.50;0.50;;;;;;;;;;7389813;19;20610;-91
2023/06/24 04:15:35;;;;;;;1.45;1.42;;;;;;;;;;7394191;19;20141;-92
2023/06/24 04:18:03;;;;;;;0.88;0.88;;;;;;;;;;7393733;19;20141;-92
2023/06/24 04:20:30;;;;;;;1.20;0.75;;;;;;;;;;7393570;19;20137;-92
2023/06/24 04:22:58;;;;;;;1.10;1.10;;;;;;;;;;7395006;19;20139;-92
2023/06/24 04:25:24;;;;;;;0.65;0.65;;;;;;;;;;7394377;19;20224;-91
2023/06/24 04:27:51;;;;;;;0.95;0.95;;;;;;;;;;7391192;19;20125;-92
2023/06/24 04:30:18;;;;;;;2.28;1.00;;;;;;;;;;7391336;19;20203;-92
2023/06/24 04:32:45;;;;;;;4.40;1.00;;;;;;;;;;7392738;19;20141;-92
2023/06/24 04:35:15;;;;;;;1.70;1.60;;;;;;;;;;7393517;19;20173;-93
2023/06/24 04:37:43;;;;;;;1.33;1.23;;;;;;;;;;7393085;19;20145;-93
2023/06/24 04:40:10;;;;;;;0.80;0.80;;;;;;;;;;7393039;19;20502;-93
2023/06/24 04:42:36;;;;;;;0.60;0.60;;;;;;;;;;7392328;19;20145;-92
2023/06/24 04:45:05;;;;;;;0.85;0.85;;;;;;;;;;7392671;19;21046;-92
2023/06/24 04:47:34;;;;;;;1.80;1.10;;;;;;;;;;7391623;19;20145;-93
2023/06/24 04:50:01;;;;;;;0.88;0.88;;;;;;;;;;7394043;19;20133;-92
2023/06/24 04:52:28;;;;;;;0.95;0.95;;;;;;;;;;7391077;19;20161;-93
2023/06/24 04:54:55;;;;;;;0.95;0.95;;;;;;;;;;7391985;19;20182;-92
2023/06/24 04:57:24;;;;;;;0.43;0.43;;;;;;;;;;7391001;19;20133;-93
2023/06/24 04:59:51;;;;;;;1.17;1.10;;;;;;;;;;7400405;19;20145;-92
2023/06/24 05:02:18;;;;;;;0.93;0.93;;;;;;;;;;7403352;19;20485;-92
2023/06/24 05:04:47;;;;;;;0.73;0.73;;;;;;;;;;7402314;19;20180;-92
2023/06/24 05:07:15;;;;;;;0.47;0.47;;;;;;;;;;7398008;19;20196;-93
2023/06/24 05:09:43;;;;;;;0.55;0.55;;;;;;;;;;7398762;19;20137;-92
2023/06/24 05:12:10;;;;;;;0.55;0.55;;;;;;;;;;7397004;19;20610;-92
2023/06/24 05:14:37;;;;;;;1.00;1.00;;;;;;;;;;7398867;19;20164;-92
2023/06/24 05:17:04;;;;;;;0.65;0.65;;;;;;;;;;7397725;19;20133;-92
2023/06/24 05:19:31;;;;;;;2.17;1.55;;;;;;;;;;7401460;19;20129;-92
2023/06/24 05:21:58;;;;;;;0.95;0.52;;;;;;;;;;7397144;19;20137;-92
2023/06/24 06:07:39;;;;;;;1.35;1.30;;;;;;;;;;7398336;19;20161;-90
2023/06/24 06:10:06;;;;;;;7.22;1.02;;;;;;;;;;7391728;19;20141;-91
2023/06/24 06:12:36;;;;;;;0.60;0.60;;;;;;;;;;7391100;19;20151;-92
2023/06/24 06:15:03;;;;;;;0.80;0.80;;;;;;;;;;7393678;19;20172;-91
2023/06/24 06:17:30;;;;;;;0.60;0.60;;;;;;;;;;7394202;19;20149;-91
2023/06/24 06:19:57;;;;;;;1.23;1.13;;;;;;;;;;7397414;19;20144;-90
2023/06/24 06:22:24;;;;;;;0.57;0.57;;;;;;;;;;7395009;19;20152;-90
2023/06/24 06:24:50;;;;;;;1.20;1.08;;;;;;;;;;7395010;19;20165;-91
2023/06/24 06:27:17;;;;;;;0.68;0.68;;;;;;;;;;7398464;19;20169;-90
2023/06/24 06:29:44;;;;;;;1.13;1.13;;;;;;;;;;7393724;19;20155;-90
2023/06/24 06:32:11;;;;;;;0.55;0.55;;;;;;;;;;7392908;19;20809;-91
2023/06/24 06:34:40;;;;;;;0.95;0.95;;;;;;;;;;7392778;19;20664;-90
2023/06/24 06:37:09;;;;;;;1.52;1.42;;;;;;;;;;7396605;19;20169;-91
2023/06/24 06:40:41;;;;;;;0.80;0.60;;;;;;;;;;7394424;19;20165;-91
2023/06/24 06:43:07;;;;;;;1.02;0.82;;;;;;;;;;7392911;19;20140;-90
2023/06/24 06:45:38;;;;;;;1.23;0.90;;;;;;;;;;7391222;19;20237;-91
2023/06/24 06:48:18;;;;;;;0.73;0.73;;;;;;;;;;7395666;19;20149;-88
2023/06/24 06:50:52;;;;;;;1.30;1.30;;;;;;;;;;7397786;19;20135;-89
2023/06/24 06:53:19;;;;;;;2.10;1.05;;;;;;;;;;7404083;19;20150;-89
2023/06/24 06:55:46;;;;;;;1.05;1.05;;;;;;;;;;7400382;19;20565;-90
2023/06/24 06:58:12;;;;;;;0.82;0.73;;;;;;;;;;7403979;19;20137;-91
2023/06/24 07:01:01;;;;;;;1.30;1.17;;;;;;;;;;7400570;19;20133;-89
2023/06/24 07:03:57;;;;;;;0.80;0.80;;;;;;;;;;7400090;19;20157;-89
2023/06/24 07:06:24;;;;;;;1.33;1.23;;;;;;;;;;7403760;19;20486;-89
2023/06/24 07:08:50;;;;;;;0.60;0.60;;;;;;;;;;7404961;19;20147;-88
2023/06/24 07:11:17;;;;;;;0.88;0.88;;;;;;;;;;7404871;19;20156;-88
2023/06/24 07:13:45;;;;;;;1.52;1.42;;;;;;;;;;7404722;19;20149;-90
2023/06/24 07:16:12;;;;;;;1.05;1.05;;;;;;;;;;7403921;19;20137;-89
2023/06/24 07:18:39;;;;;;;0.93;0.93;;;;;;;;;;7408240;19;20139;-90
2023/06/24 07:21:06;;;;;;;2.50;0.98;;;;;;;;;;7405839;19;20144;-89
2023/06/24 07:23:32;;;;;;;1.35;1.02;;;;;;;;;;7405940;19;20176;-89
2023/06/24 07:25:59;;;;;;;0.80;0.80;;;;;;;;;;7406205;19;20141;-90
2023/06/24 07:28:29;;;;;;;0.70;0.70;;;;;;;;;;7403732;19;20141;-89
2023/06/24 07:30:56;;;;;;;2.15;1.45;;;;;;;;;;7404557;19;20147;-89
2023/06/24 07:34:20;;;;;;;;;;;;;;;;;;;;;
2023/06/24 07:37:44;;;;;;;0.68;0.68;;;;;;;;;;7401421;19;20145;-89
2023/06/24 07:40:25;;;;;;;0.93;0.93;;;;;;;;;;7400696;19;20200;-88
2023/06/24 07:42:54;;;;;;;0.85;0.85;;;;;;;;;;7399305;19;20137;-89
2023/06/24 07:45:21;;;;;;;1.42;1.13;;;;;;;;;;7396595;19;20172;-89
2023/06/24 07:47:47;;;;;;;0.73;0.73;;;;;;;;;;7399358;19;20144;-90
2023/06/24 07:50:15;;;;;;;1.17;1.10;;;;;;;;;;7400142;19;20205;-90
2023/06/24 07:52:42;;;;;;;2.17;1.65;;;;;;;;;;7404594;19;20145;-88
2023/06/24 07:55:09;;;;;;;1.17;1.05;;;;;;;;;;7405611;19;20235;-88
2023/06/24 07:57:36;;;;;;;0.70;0.70;;;;;;;;;;7403494;19;20149;-89
2023/06/24 08:00:09;;;;;;;0.90;0.90;;;;;;;;;;7405336;19;20149;-88
2023/06/24 08:02:41;;;;;;;1.00;1.00;;;;;;;;;;7404644;19;20141;-91
2023/06/24 08:05:11;;;;;;;0.95;0.95;;;;;;;;;;7402288;19;20173;-89
2023/06/24 08:07:43;;;;;;;0.77;0.77;;;;;;;;;;7402161;19;20140;-90
2023/06/24 08:10:18;;;;;;;1.10;0.95;;;;;;;;;;7401852;19;20159;-90
2023/06/24 08:12:56;;;;;;;1.10;1.10;;;;;;;;;;7403371;19;20181;-90
2023/06/24 08:15:24;;;;;;;0.75;0.75;;;;;;;;;;7401061;19;20194;-88
2023/06/24 08:18:00;;;;;;;0.85;0.85;;;;;;;;;;7400316;19;20156;-87
2023/06/24 08:20:47;;;;;;;1.35;1.20;;;;;;;;;;7400242;19;20141;-88
2023/06/24 08:23:22;;;;;;;0.60;0.60;;;;;;;;;;7401124;19;20193;-87
2023/06/24 08:26:13;;;;;;;0.82;0.82;;;;;;;;;;7403360;19;20162;-87
2023/06/24 08:28:52;;;;;;;0.52;0.52;;;;;;;;;;7397343;19;20494;-88
2023/06/24 08:32:06;;;;;;;;;;;;;;;;;;;;;
2023/06/24 08:38:08;;;;;;;0.70;0.70;;;;;;;;;;7405892;19;20600;-88
2023/06/24 08:40:58;;;;;;;0.60;0.60;;;;;;;;;;7409573;19;20141;-88
2023/06/24 08:43:28;;;;;;;1.02;0.98;;;;;;;;;;7404620;19;20164;-88
2023/06/24 08:46:12;;;;;;;0.82;0.82;;;;;;;;;;7400182;19;20199;-89
2023/06/24 08:48:50;;;;;;;0.75;0.75;;;;;;;;;;7407523;19;20141;-88
2023/06/24 08:51:24;;;;;;;0.85;0.85;;;;;;;;;;7403120;19;20172;-88
2023/06/24 08:54:09;;;;;;;;;;;;;;;;;;;;;
2023/06/24 08:57:04;;;;;;;;;;;;;;;;;;;;;
2023/06/24 09:00:10;;;;;;;0.90;0.85;;;;;;;;;;7401117;19;20156;-88
2023/06/24 09:02:56;;;;;;;0.70;0.70;;;;;;;;;;7402227;19;20196;-89
2023/06/24 09:06:09;;;;;;;0.80;0.80;;;;;;;;;;7402067;19;20184;-88
2023/06/24 09:13:38;;;;;;;1.90;1.30;;;;;;;;;;7397000;19;20171;-90
2023/06/24 09:17:04;;;;;;;;;;;;;;;;;;;;;
2023/06/24 09:23:30;;;;;;;0.93;0.93;;;;;;;;;;7394047;19;20760;-91
2023/06/24 12:40:08;;;;;;;0.80;0.80;;;;;;;;;;7395125;19;20557;-86
2023/06/24 12:42:35;;;;;;;1.15;1.05;;;;;;;;;;7391762;19;20385;-86
2023/06/24 12:45:02;;;;;;;0.70;0.70;;;;;;;;;;7388375;19;20168;-88
2023/06/24 12:47:29;;;;;;;1.00;1.00;;;;;;;;;;7391976;19;20165;-89
2023/06/24 12:49:55;;;;;;;1.17;0.93;;;;;;;;;;7389629;19;20140;-89
2023/06/24 12:52:22;;;;;;;0.55;0.55;;;;;;;;;;7392547;19;20157;-89
2023/06/24 12:54:49;;;;;;;0.65;0.65;;;;;;;;;;7390316;19;20913;-88
2023/06/24 12:57:35;;;;;;;0.88;0.88;;;;;;;;;;7389296;19;20137;-88
2023/06/24 13:00:05;;;;;;;1.00;0.95;;;;;;;;;;7393028;19;20571;-88
2023/06/24 13:02:35;;;;;;;1.05;1.05;;;;;;;;;;7389548;19;20148;-89
2023/06/24 13:05:04;;;;;;;0.57;0.57;;;;;;;;;;7388715;19;20168;-89
2023/06/24 13:07:31;;;;;;;7.50;0.93;;;;;;;;;;7392480;19;20129;-89
2023/06/24 13:10:01;;;;;;;0.60;0.60;;;;;;;;;;7397847;19;20135;-89
2023/06/24 13:12:28;;;;;;;0.70;0.70;;;;;;;;;;7396497;19;20522;-90
2023/06/24 13:14:54;;;;;;;0.90;0.90;;;;;;;;;;7394890;19;20182;-89
2023/06/24 13:17:28;;;;;;;0.70;0.70;;;;;;;;;;7396566;19;20125;-89
2023/06/24 13:19:56;;;;;;;0.80;0.80;;;;;;;;;;7396271;19;20136;-88
2023/06/24 13:22:23;;;;;;;0.73;0.73;;;;;;;;;;7398800;19;20189;-87
2023/06/24 13:24:51;;;;;;;0.60;0.60;;;;;;;;;;7396092;19;20149;-89
2023/06/24 13:27:17;;;;;;;1.23;1.20;;;;;;;;;;7396291;19;20148;-89
2023/06/24 13:29:44;;;;;;;0.70;0.70;;;;;;;;;;7397140;19;20150;-89
2023/06/24 13:32:11;;;;;;;0.77;0.77;;;;;;;;;;7394168;19;20184;-89
2023/06/24 13:34:37;;;;;;;0.50;0.50;;;;;;;;;;7396504;19;20152;-89
2023/06/24 13:37:21;;;;;;;1.02;1.00;;;;;;;;;;7392941;19;20272;-89
2023/06/24 13:39:51;;;;;;;0.98;0.93;;;;;;;;;;7393067;19;20147;-89
2023/06/24 13:42:18;;;;;;;0.57;0.57;;;;;;;;;;7394076;19;20712;-89
2023/06/24 13:44:57;;;;;;;;;;;;;;;;;;;;;
2023/06/24 13:48:03;;;;;;;0.77;0.77;;;;;;;;;;7395907;19;20137;-89
2023/06/24 13:50:30;;;;;;;0.88;0.88;;;;;;;;;;7393426;19;20137;-88
2023/06/24 13:54:11;;;;;;;0.50;0.50;;;;;;;;;;7392152;19;20174;-89
2023/06/24 13:56:43;;;;;;;0.85;0.85;;;;;;;;;;7388788;19;20136;-90
2023/06/24 13:59:10;;;;;;;0.90;0.90;;;;;;;;;;7391937;19;20137;-90
2023/06/24 14:01:37;;;;;;;0.82;0.82;;;;;;;;;;7393408;19;20161;-89
2023/06/24 14:04:07;;;;;;;0.70;0.70;;;;;;;;;;7392203;19;20204;-87
2023/06/24 14:06:42;;;;;;;1.00;0.95;;;;;;;;;;7390303;19;20515;-88
2023/06/24 14:09:15;;;;;;;0.70;0.70;;;;;;;;;;7391035;19;20177;-89
2023/06/24 14:11:42;;;;;;;0.90;0.90;;;;;;;;;;7384124;19;20563;-89
2023/06/24 14:14:09;;;;;;;0.68;0.68;;;;;;;;;;7387741;19;20227;-89
2023/06/24 14:16:36;;;;;;;0.90;0.90;;;;;;;;;;7387622;19;20146;-89
2023/06/24 14:19:03;;;;;;;0.85;0.85;;;;;;;;;;7392119;19;20141;-89
2023/06/24 14:21:31;;;;;;;0.93;0.93;;;;;;;;;;7401037;19;20157;-88
2023/06/24 14:23:58;;;;;;;1.17;1.08;;;;;;;;;;7401709;19;20168;-88
2023/06/24 14:26:40;;;;;;;1.00;0.60;;;;;;;;;;7397762;19;20137;-88
2023/06/24 14:29:07;;;;;;;1.10;1.10;;;;;;;;;;7395782;19;20148;-88
2023/06/24 14:31:34;;;;;;;1.15;1.00;;;;;;;;;;7398352;19;20140;-88
2023/06/24 14:34:01;;;;;;;0.60;0.60;;;;;;;;;;7396847;19;20232;-89
2023/06/24 14:36:27;;;;;;;0.90;0.85;;;;;;;;;;7394928;19;20154;-88
2023/06/24 14:38:54;;;;;;;0.73;0.73;;;;;;;;;;7409427;19;20168;-89
2023/06/24 14:41:21;;;;;;;0.98;0.98;;;;;;;;;;7428684;19;20146;-87
2023/06/24 14:43:48;;;;;;;0.80;0.80;;;;;;;;;;7428291;19;20193;-89
2023/06/24 14:46:14;;;;;;;0.40;0.40;;;;;;;;;;7425005;19;20129;-88
2023/06/24 14:48:41;;;;;;;0.82;0.80;;;;;;;;;;7429535;19;20153;-88
2023/06/24 14:51:08;;;;;;;1.73;1.15;;;;;;;;;;7428549;19;20142;-87
2023/06/24 14:53:34;;;;;;;0.85;0.85;;;;;;;;;;7424621;19;20189;-88
2023/06/24 14:56:01;;;;;;;0.63;0.63;;;;;;;;;;7425612;19;20134;-88
2023/06/24 14:58:28;;;;;;;1.13;1.08;;;;;;;;;;7421403;19;20141;-89
2023/06/24 15:00:54;;;;;;;0.70;0.70;;;;;;;;;;7391837;19;20649;-88
2023/06/24 15:03:21;;;;;;;1.30;1.20;;;;;;;;;;7391789;19;20121;-88
2023/06/24 15:05:48;;;;;;;0.60;0.60;;;;;;;;;;7390862;19;20137;-88
2023/06/24 15:08:14;;;;;;;0.60;0.60;;;;;;;;;;7393324;19;20136;-88
2023/06/24 15:10:41;;;;;;;1.10;1.10;;;;;;;;;;7398656;19;20137;-88
2023/06/24 15:13:08;;;;;;;1.65;1.10;;;;;;;;;;7394544;19;20137;-88
2023/06/24 15:15:35;;;;;;;0.90;0.90;;;;;;;;;;7395435;19;20159;-86
2023/06/24 15:18:02;;;;;;;0.60;0.60;;;;;;;;;;7400508;19;20161;-88
2023/06/24 15:20:29;;;;;;;0.77;0.77;;;;;;;;;;7400239;19;20208;-88
2023/06/24 15:22:56;;;;;;;0.77;0.77;;;;;;;;;;7396901;19;20609;-88
2023/06/24 15:25:22;;;;;;;0.60;0.60;;;;;;;;;;7392634;19;20204;-89
2023/06/24 15:27:49;;;;;;;0.88;0.88;;;;;;;;;;7394820;19;20149;-88
2023/06/24 15:30:16;;;;;;;1.13;1.10;;;;;;;;;;7398471;19;20135;-89
2023/06/24 15:32:44;;;;;;;0.50;0.50;;;;;;;;;;7397748;19;20145;-88
2023/06/24 15:35:11;;;;;;;0.85;0.85;;;;;;;;;;7397128;19;20164;-88
2023/06/24 15:37:38;;;;;;;0.70;0.70;;;;;;;;;;7398419;19;20141;-89
2023/06/24 15:40:05;;;;;;;0.60;0.60;;;;;;;;;;7395980;19;20144;-88
2023/06/24 15:42:32;;;;;;;0.50;0.50;;;;;;;;;;7391493;19;20184;-88
2023/06/24 15:44:58;;;;;;;0.88;0.88;;;;;;;;;;7395005;19;20164;-89
2023/06/24 15:47:28;;;;;;;0.90;0.90;;;;;;;;;;7397591;19;20133;-87
2023/06/24 15:49:55;;;;;;;0.80;0.80;;;;;;;;;;7397659;19;20506;-89
2023/06/24 15:52:22;;;;;;;0.98;0.98;;;;;;;;;;7395707;19;20137;-88
2023/06/24 15:54:48;;;;;;;0.93;0.80;;;;;;;;;;7397519;19;20149;-88
2023/06/24 15:57:15;;;;;;;0.95;0.95;;;;;;;;;;7395427;19;20137;-88
2023/06/24 15:59:42;;;;;;;0.82;0.82;;;;;;;;;;7394338;19;20121;-88
2023/06/24 16:02:08;;;;;;;0.77;0.77;;;;;;;;;;7395238;19;20133;-88
2023/06/24 16:04:45;;;;;;;1.13;1.02;;;;;;;;;;7394044;19;20169;-88
2023/06/24 16:07:17;;;;;;;0.55;0.55;;;;;;;;;;7390838;19;20150;-88
2023/06/24 16:09:54;;;;;;;0.80;0.77;;;;;;;;;;7390654;19;20155;-89
2023/06/24 16:12:24;;;;;;;0.75;0.75;;;;;;;;;;7390704;19;20144;-89
2023/06/24 16:14:50;;;;;;;1.00;1.00;;;;;;;;;;7388697;19;20644;-89
2023/06/24 16:17:17;;;;;;;0.57;0.57;;;;;;;;;;7390492;19;20129;-89
2023/06/24 16:19:43;;;;;;;0.82;0.82;;;;;;;;;;7389001;19;20125;-87
2023/06/24 16:22:10;;;;;;;0.85;0.85;;;;;;;;;;7389902;19;20495;-89
2023/06/24 16:24:44;;;;;;;0.63;0.63;;;;;;;;;;7390771;19;20153;-89
2023/06/24 16:27:13;;;;;;;0.93;0.93;;;;;;;;;;7395039;19;20140;-89
2023/06/24 16:29:40;;;;;;;1.50;1.40;;;;;;;;;;7392161;19;20146;-89
2023/06/24 16:32:07;;;;;;;0.88;0.88;;;;;;;;;;7391746;19;20133;-88
2023/06/24 16:34:33;;;;;;;0.70;0.70;;;;;;;;;;7393222;19;20561;-88
2023/06/24 16:37:00;;;;;;;1.02;1.02;;;;;;;;;;7391517;19;20137;-88
2023/06/24 16:39:27;;;;;;;1.00;1.00;;;;;;;;;;7392040;19;20573;-88
2023/06/24 16:41:53;;;;;;;0.93;0.93;;;;;;;;;;7389586;19;20597;-88
2023/06/24 16:44:20;;;;;;;1.55;1.00;;;;;;;;;;7392072;19;20160;-88
2023/06/24 16:46:47;;;;;;;0.70;0.70;;;;;;;;;;7393341;19;20550;-88
2023/06/24 16:49:28;;;;;;;0.60;0.60;;;;;;;;;;7390481;19;20188;-88
2023/06/24 16:51:55;;;;;;;0.70;0.70;;;;;;;;;;7390891;19;20653;-88
2023/06/24 16:54:24;;;;;;;1.13;1.08;;;;;;;;;;7390507;19;20204;-88
2023/06/24 16:57:00;;;;;;;1.20;1.05;;;;;;;;;;7391300;19;20141;-89
2023/06/24 16:59:27;;;;;;;1.05;0.93;;;;;;;;;;7392584;19;20220;-88
2023/06/24 17:01:54;;;;;;;0.73;0.73;;;;;;;;;;7392204;19;20147;-88
2023/06/24 17:04:21;;;;;;;1.08;1.08;;;;;;;;;;7389404;19;20165;-89
2023/06/24 17:06:47;;;;;;;0.75;0.70;;;;;;;;;;7393152;19;20136;-89
2023/06/24 17:09:14;;;;;;;2.92;0.93;;;;;;;;;;7388995;19;20137;-89
2023/06/24 17:11:41;;;;;;;0.45;0.45;;;;;;;;;;7388812;19;20129;-88
2023/06/24 17:14:08;;;;;;;1.88;0.73;;;;;;;;;;7391925;19;20185;-88
2023/06/24 17:16:34;;;;;;;0.80;0.80;;;;;;;;;;7390379;19;20129;-89
2023/06/24 17:19:01;;;;;;;0.50;0.50;;;;;;;;;;7389304;19;20631;-88
2023/06/24 17:21:28;;;;;;;0.70;0.70;;;;;;;;;;7391381;19;20141;-88
2023/06/24 17:23:55;;;;;;;1.27;1.20;;;;;;;;;;7391791;19;20144;-88
2023/06/24 17:26:21;;;;;;;0.80;0.80;;;;;;;;;;7392881;19;20121;-88
2023/06/24 17:28:48;;;;;;;1.35;1.05;;;;;;;;;;7390066;19;20137;-89
2023/06/24 17:31:15;;;;;;;1.38;1.27;;;;;;;;;;7391276;19;20140;-88
2023/06/24 17:33:41;;;;;;;0.75;0.75;;;;;;;;;;7388262;19;20162;-89
2023/06/24 17:36:08;;;;;;;0.70;0.70;;;;;;;;;;7388103;19;20137;-89
2023/06/24 17:38:35;;;;;;;0.75;0.75;;;;;;;;;;7391044;19;20163;-88
2023/06/24 17:41:02;;;;;;;0.60;0.60;;;;;;;;;;7393195;19;20473;-89
2023/06/24 17:43:28;;;;;;;0.70;0.60;;;;;;;;;;7392749;19;20141;-88
2023/06/24 17:45:55;;;;;;;0.85;0.85;;;;;;;;;;7384884;19;20622;-88
2023/06/24 17:48:23;;;;;;;0.55;0.55;;;;;;;;;;7384131;19;20132;-88
2023/06/24 17:50:53;;;;;;;1.33;1.23;;;;;;;;;;7385488;19;20528;-89
2023/06/24 17:54:17;;;;;;;1.10;1.08;;;;;;;;;;7384017;19;20151;-89
2023/06/24 17:57:02;;;;;;;1.13;1.05;;;;;;;;;;7394140;19;20145;-89
2023/06/24 18:39:18;;;;;;;0.85;0.85;;;;;;;;;;7392130;19;20116;-87
2023/06/24 18:43:07;;;;;;;1.00;1.00;;;;;;;;;;7390029;19;20705;-87
2023/06/24 18:46:39;;;;;;;0.50;0.50;;;;;;;;;;7391915;19;20132;-88
2023/06/24 18:50:31;;;;;;;1.00;0.85;;;;;;;;;;7393950;19;20141;-88
2023/06/24 18:53:19;;;;;;;0.98;0.77;;;;;;;;;;7389777;19;20160;-90
2023/06/24 18:55:46;;;;;;;1.65;0.60;;;;;;;;;;7385589;19;20603;-89
2023/06/24 18:58:22;;;;;;;2.47;1.70;;;;;;;;;;7396404;19;20133;-89
2023/06/24 19:00:48;;;;;;;0.80;0.80;;;;;;;;;;7394680;19;20136;-89
2023/06/24 19:04:09;;;;;;;0.82;0.80;;;;;;;;;;7391623;19;20143;-89
2023/06/24 19:11:11;;;;;;;1.15;1.15;;;;;;;;;;7395347;19;20113;-87
2023/06/24 19:17:42;;;;;;;0.95;0.95;;;;;;;;;;7392371;19;20516;-87
2023/06/24 19:25:07;;;;;;;0.80;0.80;;;;;;;;;;7395425;19;20128;-88
2023/06/24 19:28:39;;;;;;;1.23;1.23;;;;;;;;;;7394863;19;20215;-88
2023/06/24 19:31:04;;;;;;;1.02;1.02;;;;;;;;;;7395945;19;20140;-87
2023/06/24 19:33:32;;;;;;;1.80;0.85;;;;;;;;;;7396412;19;20169;-87
2023/06/24 19:36:01;;;;;;;0.98;0.93;;;;;;;;;;7395611;19;20130;-88
2023/06/24 19:39:19;;;;;;;0.60;0.60;;;;;;;;;;7399034;19;20140;-88
2023/06/24 19:46:48;;;;;;;0.65;0.65;;;;;;;;;;7395727;19;20116;-87
2023/06/24 19:50:43;;;;;;;0.80;0.80;;;;;;;;;;7394042;19;20196;-87
2023/06/24 20:01:16;;;;;;;0.60;0.60;;;;;;;;;;7422853;19;20116;-91
2023/06/24 20:04:28;;;;;;;0.80;0.80;;;;;;;;;;7412281;19;20249;-89
2023/06/24 20:06:54;;;;;;;0.60;0.60;;;;;;;;;;7394086;19;20140;-90
2023/06/24 20:13:58;;;;;;;0.85;0.85;;;;;;;;;;7389918;19;20221;-90
2023/06/24 20:21:03;;;;;;;0.82;0.82;;;;;;;;;;7402086;19;20130;-87
2023/06/24 20:34:38;;;;;;;1.02;1.02;;;;;;;;;;7395159;19;20146;-88
2023/06/24 20:37:05;;;;;;;1.23;1.13;;;;;;;;;;7394436;19;20158;-88
2023/06/24 20:39:33;;;;;;;0.90;0.90;;;;;;;;;;7397864;19;20212;-88
2023/06/24 20:42:00;;;;;;;0.50;0.50;;;;;;;;;;7395758;19;20141;-88
2023/06/24 20:44:27;;;;;;;1.77;1.63;;;;;;;;;;7398368;19;20137;-89
2023/06/24 20:46:53;;;;;;;3.53;1.98;;;;;;;;;;7395914;19;20145;-88
2023/06/24 20:49:20;;;;;;;0.80;0.80;;;;;;;;;;7397623;19;20140;-89
2023/06/24 20:51:48;;;;;;;0.88;0.88;;;;;;;;;;7399871;19;20499;-89
2023/06/24 20:54:15;;;;;;;1.55;0.93;;;;;;;;;;7401329;19;20155;-89
2023/06/24 20:56:42;;;;;;;1.38;1.27;;;;;;;;;;7400111;19;20137;-89
2023/06/24 20:59:09;;;;;;;1.52;1.42;;;;;;;;;;7402392;19;20166;-88